Time;durP1;ratioP1;P1;durP2;ratioP2;P2;SDS_P1;SDS_P2;PMS_P1;PMS_P2;Temp;Humidity;BMP_temperature;BMP_pressure;BME280_temperature;BME280_humidity;BME280_pressure;Samples;Min_cycle;Max_cycle;Signal;HPM_P1;HPM_P2
2023/01/06 00:01:09;;;;;;;0.70;0.28;;;8.30;99.90;;;;;;5092720;28;20194;-62
2023/01/06 00:03:36;;;;;;;0.45;0.30;;;8.30;99.90;;;;;;5096529;28;20036;-62
2023/01/06 00:06:03;;;;;;;1.98;0.13;;;8.30;99.90;;;;;;5092745;28;20403;-62
2023/01/06 00:08:29;;;;;;;0.35;0.22;;;8.30;99.90;;;;;;5098213;28;20109;-62
2023/01/06 00:10:55;;;;;;;;;;;8.30;99.90;;;;;;5093226;28;20488;-62
2023/01/06 00:13:21;;;;;;;1.55;0.60;;;8.40;99.90;;;;;;5080508;28;19924;-62
2023/01/06 00:15:46;;;;;;;;;;;8.30;99.90;;;;;;5087018;28;20052;-60
2023/01/06 00:18:12;;;;;;;0.32;0.30;;;8.40;99.90;;;;;;5086839;28;19919;-61
2023/01/06 00:20:38;;;;;;;;;;;8.40;99.90;;;;;;5075370;28;20086;-60
2023/01/06 00:23:03;;;;;;;3.63;0.45;;;8.40;99.90;;;;;;5084368;28;19993;-61
2023/01/06 00:25:29;;;;;;;;;;;8.30;99.90;;;;;;5083025;28;20369;-62
2023/01/06 00:27:55;;;;;;;0.70;0.40;;;8.40;99.90;;;;;;5086283;28;20007;-58
2023/01/06 00:30:20;;;;;;;0.47;0.38;;;8.40;99.90;;;;;;5077471;28;20040;-62
2023/01/06 00:32:46;;;;;;;;;;;8.40;99.90;;;;;;5074466;28;20049;-60
2023/01/06 00:35:11;;;;;;;0.63;0.28;;;8.40;99.90;;;;;;5074840;28;20049;-61
2023/01/06 00:37:37;;;;;;;0.40;0.30;;;8.40;99.90;;;;;;5075751;28;20032;-61
2023/01/06 00:40:03;;;;;;;2.58;0.40;;;8.40;99.90;;;;;;5078396;28;20136;-60
2023/01/06 00:42:29;;;;;;;0.40;0.40;;;8.40;99.90;;;;;;5076769;28;20096;-61
2023/01/06 00:44:54;;;;;;;;;;;8.40;99.90;;;;;;5079144;28;20036;-60
2023/01/06 00:47:20;;;;;;;0.50;0.28;;;8.40;99.90;;;;;;5079475;28;20416;-61
2023/01/06 00:49:46;;;;;;;0.93;0.30;;;8.40;99.90;;;;;;5075290;28;20071;-61
2023/01/06 00:52:12;;;;;;;;;;;8.40;99.90;;;;;;5077453;28;20367;-61
2023/01/06 00:54:37;;;;;;;0.30;0.30;;;8.40;99.90;;;;;;5076938;28;19916;-61
2023/01/06 00:57:04;;;;;;;;;;;8.50;99.90;;;;;;5073723;28;20055;-62
2023/01/06 00:59:30;;;;;;;0.20;0.20;;;8.40;99.90;;;;;;5077662;28;20352;-61
2023/01/06 01:01:56;;;;;;;;;;;8.40;99.90;;;;;;5093521;28;20040;-61
2023/01/06 01:04:23;;;;;;;1.70;0.93;;;8.40;99.90;;;;;;5097804;28;20272;-61
2023/01/06 01:06:50;;;;;;;0.98;0.60;;;8.40;99.90;;;;;;5095554;28;20869;-61
2023/01/06 01:09:20;;;;;;;0.50;0.40;;;8.40;99.90;;;;;;5094923;28;20028;-61
2023/01/06 01:14:42;;;;;;;0.22;0.22;;;8.50;99.90;;;;;;5082457;28;20052;-62
2023/01/06 01:17:10;;;;;;;0.60;0.20;;;8.50;99.90;;;;;;5090092;28;20145;-61
2023/01/06 01:19:36;;;;;;;0.20;0.20;;;8.60;99.90;;;;;;5096165;28;20096;-62
2023/01/06 01:22:02;;;;;;;2.20;0.17;;;8.50;99.90;;;;;;5099106;28;20047;-61
2023/01/06 01:24:27;;;;;;;;;;;8.60;99.90;;;;;;5096290;28;20123;-62
2023/01/06 01:26:53;;;;;;;1.08;0.20;;;8.50;99.90;;;;;;5103236;28;19926;-60
2023/01/06 01:29:19;;;;;;;;;;;8.50;99.90;;;;;;5094384;27;20028;-61
2023/01/06 01:31:45;;;;;;;0.75;0.30;;;8.50;99.90;;;;;;5088621;28;19923;-62
2023/01/06 01:34:13;;;;;;;0.30;0.22;;;8.50;99.90;;;;;;5084978;28;20109;-61
2023/01/06 01:36:43;;;;;;;0.30;0.30;;;8.50;99.90;;;;;;5071649;28;20726;-61
2023/01/06 01:39:10;;;;;;;0.20;0.20;;;;;;;;;;5077778;28;20043;-61
2023/01/06 01:41:36;;;;;;;0.43;0.28;;;;;;;;;;5080962;28;20059;-61
2023/01/06 01:44:02;;;;;;;;;;;;;;;;;;5083609;28;20086;-60
2023/01/06 01:46:30;;;;;;;0.30;0.20;;;;;;;;;;5076730;28;19927;-60
2023/01/06 01:48:59;;;;;;;0.32;0.32;;;;;;;;;;5085474;28;20407;-62
2023/01/06 01:51:30;;;;;;;0.35;0.25;;;;;;;;;;5080494;28;20148;-60
2023/01/06 01:53:58;;;;;;;0.60;0.30;;;;;;;;;;5083326;28;20036;-61
2023/01/06 01:56:26;;;;;;;0.88;0.30;;;;;;;;;;5074541;28;20075;-62
2023/01/06 01:58:58;;;;;;;1.42;1.08;;;;;;;;;;5085092;28;20040;-62
2023/01/06 02:01:25;;;;;;;0.73;0.50;;;;;;;;;;5077195;28;20044;-61
2023/01/06 02:03:51;;;;;;;0.30;0.30;;;;;;;;;;5081816;28;20043;-62
2023/01/06 02:06:19;;;;;;;1.00;0.45;;;;;;;;;;5079412;28;20048;-62
2023/01/06 02:08:58;;;;;;;1.15;0.38;;;;;;;;;;5080146;28;20162;-62
2023/01/06 02:11:26;;;;;;;3.03;0.40;;;;;;;;;;5079347;28;20044;-62
2023/01/06 02:13:55;;;;;;;2.55;0.40;;;;;;;;;;5081653;28;20085;-61
2023/01/06 02:16:35;;;;;;;5.25;0.52;;;;;;;;;;5074034;28;20042;-61
2023/01/06 02:19:12;;;;;;;1.77;0.93;;;;;;;;;;5082886;28;20040;-61
2023/01/06 02:22:01;;;;;;;1.63;0.85;;;;;;;;;;5075745;28;20040;-62
2023/01/06 02:24:37;;;;;;;2.40;1.00;;;;;;;;;;5075814;28;20043;-61
2023/01/06 02:27:09;;;;;;;1.00;0.80;;;;;;;;;;5077576;28;20144;-62
2023/01/06 02:30:05;;;;;;;1.38;1.00;;;;;;;;;;5086036;28;20047;-62
2023/01/06 02:32:33;;;;;;;3.33;0.95;;;;;;;;;;5023506;28;20088;-61
2023/01/06 02:35:29;;;;;;;3.58;1.40;;;;;;;;;;5075915;28;20028;-61
2023/01/06 02:38:25;;;;;;;4.32;1.20;;;;;;;;;;5065208;28;20100;-60
2023/01/06 02:40:54;;;;;;;4.07;2.25;;;;;;;;;;5071589;28;20060;-62
2023/01/06 02:43:26;;;;;;;3.95;1.10;;;;;;;;;;5082404;28;20128;-62
2023/01/06 02:45:52;;;;;;;5.28;1.25;;;;;;;;;;5082071;28;20137;-61
2023/01/06 02:48:18;;;;;;;;;;;;;;;;;;5086060;28;20060;-60
2023/01/06 02:51:04;;;;;;;2.83;1.10;;;;;;;;;;5078996;28;19920;-62
2023/01/06 02:53:36;;;;;;;2.10;1.50;;;;;;;;;;5081323;28;20173;-61
2023/01/06 02:56:03;;;;;;;1.33;1.00;;;;;;;;;;5081647;28;20055;-63
2023/01/06 02:58:33;;;;;;;2.10;1.15;;;;;;;;;;5078229;28;20089;-61
2023/01/06 03:01:18;;;;;;;3.38;1.30;;;;;;;;;;5080197;28;20035;-61
2023/01/06 03:03:46;;;;;;;4.97;2.35;;;;;;;;;;5076533;28;20052;-62
2023/01/06 03:06:14;;;;;;;2.25;1.20;;;;;;;;;;5080255;28;20052;-61
2023/01/06 03:08:41;;;;;;;4.15;1.10;;;;;;;;;;5072772;28;20119;-62
2023/01/06 03:11:07;;;;;;;2.17;1.15;;;;;;;;;;5078337;28;20025;-62
2023/01/06 03:13:33;;;;;;;;;;;;;;;;;;5075609;28;20584;-63
2023/01/06 03:15:59;;;;;;;3.63;1.20;;;;;;;;;;5072092;28;19916;-62
2023/01/06 03:18:25;;;;;;;6.32;1.13;;;;;;;;;;5073063;28;20126;-62
2023/01/06 03:20:52;;;;;;;2.42;1.10;;;;;;;;;;5074625;28;20041;-61
2023/01/06 03:23:19;;;;;;;6.05;1.38;;;;;;;;;;5074170;28;20123;-62
2023/01/06 03:25:45;;;;;;;1.73;0.98;;;;;;;;;;5074306;28;20089;-62
2023/01/06 03:28:11;;;;;;;5.30;1.50;;;;;;;;;;5076326;28;20780;-62
2023/01/06 03:30:37;;;;;;;;;;;;;;;;;;5072531;28;20067;-62
2023/01/06 03:33:05;;;;;;;1.60;1.25;;;;;;;;;;5074178;28;19924;-63
2023/01/06 03:35:37;;;;;;;6.93;1.40;;;;;;;;;;5072185;28;20048;-62
2023/01/06 03:38:24;;;;;;;1.75;1.02;;;;;;;;;;5079825;28;20052;-61
2023/01/06 03:40:57;;;;;;;2.08;1.30;;;;;;;;;;5075341;28;20036;-62
2023/01/06 03:43:26;;;;;;;3.97;1.13;;;;;;;;;;5077963;28;20078;-63
2023/01/06 03:45:56;;;;;;;3.20;1.00;;;;;;;;;;5077678;28;20072;-61
2023/01/06 03:48:41;;;;;;;2.58;1.30;;;;;;;;;;5080150;28;20044;-62
2023/01/06 03:51:07;;;;;;;3.85;1.77;;;;;;;;;;5075322;28;20103;-63
2023/01/06 03:53:39;;;;;;;6.93;1.70;;;;;;;;;;5083103;28;20043;-59
2023/01/06 03:56:23;;;;;;;4.57;1.50;;;;;;;;;;5075624;28;20111;-62
2023/01/06 03:58:53;;;;;;;5.00;1.50;;;;;;;;;;5085423;28;20038;-62
2023/01/06 04:01:19;;;;;;;4.55;1.33;;;;;;;;;;5078595;28;20028;-62
2023/01/06 04:03:51;;;;;;;2.50;1.38;;;;;;;;;;5072736;28;20068;-62
2023/01/06 04:06:17;;;;;;;3.60;1.55;;;;;;;;;;5071533;28;20068;-62
2023/01/06 04:08:43;;;;;;;;;;;;;;;;;;5078684;28;20153;-62
2023/01/06 04:12:37;;;;;;;7.43;1.85;;;;;;;;;;5076960;28;19916;-59
2023/01/06 04:13:54;;;;;;;5.60;1.50;;;;;;;;;;5076252;28;20164;-60
2023/01/06 04:16:20;;;;;;;;;;;;;;;;;;5075727;28;20055;-61
2023/01/06 04:18:47;;;;;;;3.65;1.40;;;;;;;;;;5076260;28;20379;-63
2023/01/06 04:21:13;;;;;;;8.32;1.50;;;;;;;;;;5075666;28;20122;-62
2023/01/06 04:23:38;;;;;;;;;;;;;;;;;;5084816;28;20201;-62
2023/01/06 04:26:05;;;;;;;3.90;1.55;;;;;;;;;;5077170;28;19924;-62
2023/01/06 04:28:31;;;;;;;9.57;1.70;;;;;;;;;;5082150;28;20117;-62
2023/01/06 04:30:57;;;;;;;4.28;1.33;;;;;;;;;;5073764;28;20086;-63
2023/01/06 04:33:23;;;;;;;6.47;1.50;;;;;;;;;;5076228;28;20058;-62
2023/01/06 04:35:49;;;;;;;;;;;;;;;;;;5076576;28;20508;-60
2023/01/06 04:38:15;;;;;;;9.02;1.98;;;;;;;;;;5075190;28;19916;-62
2023/01/06 04:40:42;;;;;;;6.32;1.40;;;;;;;;;;5077700;28;20106;-62
2023/01/06 04:43:12;;;;;;;6.22;1.52;;;;;;;;;;5074946;28;20032;-62
2023/01/06 04:45:39;;;;;;;7.85;1.40;;;;;;;;;;5078927;28;20044;-62
2023/01/06 04:48:06;;;;;;;5.50;1.33;;;;;;;;;;5079630;28;20043;-61
2023/01/06 04:50:32;;;;;;;6.68;1.38;;;;;;;;;;5081137;28;20040;-62
2023/01/06 04:52:58;;;;;;;3.97;1.70;;;;;;;;;;5076736;28;20372;-61
2023/01/06 04:55:24;;;;;;;;;;;;;;;;;;5078464;28;20093;-61
2023/01/06 04:57:50;;;;;;;8.82;1.17;;;;;;;;;;5083283;28;19920;-61
2023/01/06 05:00:16;;;;;;;8.45;1.58;;;;;;;;;;5084779;28;20605;-62
2023/01/06 05:02:42;;;;;;;5.50;1.17;;;;;;;;;;5079191;28;20037;-62
2023/01/06 05:05:09;;;;;;;5.40;1.40;;;;;;;;;;5075136;28;20036;-62
2023/01/06 05:07:35;;;;;;;3.28;0.98;;;;;;;;;;5070452;28;20451;-61
2023/01/06 05:10:01;;;;;;;6.72;1.35;;;;;;;;;;5076890;28;20451;-62
2023/01/06 05:12:27;;;;;;;5.88;1.40;;;;;;;;;;5080442;28;20127;-62
2023/01/06 05:14:53;;;;;;;5.85;1.38;;;;;;;;;;5081403;28;20040;-62
2023/01/06 05:17:19;;;;;;;;;;;;;;;;;;5070537;28;20403;-62
2023/01/06 05:19:45;;;;;;;4.90;1.10;;;;;;;;;;5083664;28;20446;-64
2023/01/06 05:22:11;;;;;;;6.13;1.05;;;;;;;;;;5083773;28;20043;-62
2023/01/06 05:24:37;;;;;;;7.72;1.10;;;;;;;;;;5080252;28;20028;-62
2023/01/06 05:27:03;;;;;;;5.30;1.05;;;;;;;;;;5082793;28;20051;-60
2023/01/06 05:29:29;;;;;;;3.85;1.30;;;;;;;;;;5080441;28;20066;-60
2023/01/06 05:31:55;;;;;;;9.00;1.25;;;;;;;;;;5081842;28;20044;-61
2023/01/06 05:34:22;;;;;;;2.60;1.05;;;;;;;;;;5079951;28;20582;-62
2023/01/06 05:36:47;;;;;;;3.90;1.17;;;;;;;;;;5072516;28;20064;-62
2023/01/06 05:39:14;;;;;;;;;;;;;;;;;;5064783;28;20036;-62
2023/01/06 05:41:40;;;;;;;4.63;0.87;;;;;;;;;;5080492;28;19920;-62
2023/01/06 05:44:05;;;;;;;;;;;;;;;;;;5080362;28;20086;-63
2023/01/06 05:46:31;;;;;;;2.50;1.30;;;;;;;;;;5076212;28;19920;-61
2023/01/06 05:48:59;;;;;;;6.18;1.00;;;;;;;;;;5082265;28;20044;-62
2023/01/06 05:51:25;;;;;;;3.35;0.98;;;;;;;;;;5078156;28;20040;-62
2023/01/06 05:53:50;;;;;;;;;;;;;;;;;;5081464;28;20035;-62
2023/01/06 05:56:18;;;;;;;2.00;1.10;;;;;;;;;;5077169;28;19920;-62
2023/01/06 05:58:48;;;;;;;2.55;0.93;;;;;;;;;;5086621;28;20035;-62
2023/01/06 06:01:17;;;;;;;4.38;1.00;;;;;;;;;;5071364;28;20028;-62
2023/01/06 06:03:43;;;;;;;1.52;0.80;;;;;;;;;;5078910;28;20036;-62
2023/01/06 06:06:09;;;;;;;6.22;1.10;;;;;;;;;;5070255;28;20140;-63
2023/01/06 06:08:35;;;;;;;;;;;;;;;;;;5071059;28;20512;-62
2023/01/06 06:11:08;;;;;;;5.00;1.00;;;;;;;;;;5075286;28;20379;-62
2023/01/06 06:13:35;;;;;;;5.30;1.30;;;;;;;;;;5075970;28;20391;-60
2023/01/06 06:16:04;;;;;;;7.15;2.15;;;;;;;;;;5076637;28;20135;-62
2023/01/06 06:18:30;;;;;;;6.72;1.30;;;;;;;;;;5076347;28;20040;-63
2023/01/06 06:21:00;;;;;;;12.95;1.58;;;;;;;;;;5076550;28;20495;-62
2023/01/06 06:23:26;;;;;;;2.20;0.90;;;;;;;;;;5069571;28;20040;-66
2023/01/06 06:25:52;;;;;;;2.25;0.90;;;;;;;;;;5072651;28;20046;-58
2023/01/06 06:28:18;;;;;;;5.50;1.13;;;;;;;;;;5070626;28;20040;-63
2023/01/06 06:30:44;;;;;;;2.47;0.85;;;;;;;;;;5076645;28;20040;-59
2023/01/06 06:33:10;;;;;;;4.50;0.80;;;;;;;;;;5080772;28;20036;-62
2023/01/06 06:35:36;;;;;;;4.50;0.80;;;;;;;;;;5078587;28;20043;-62
2023/01/06 06:38:02;;;;;;;;;;;;;;;;;;5073163;28;20040;-61
2023/01/06 06:40:28;;;;;;;3.90;0.95;;;;;;;;;;5076069;28;19920;-62
2023/01/06 06:42:54;;;;;;;2.05;0.70;;;;;;;;;;5075936;28;20123;-63
2023/01/06 06:45:20;;;;;;;3.45;0.77;;;;;;;;;;5071264;28;20036;-62
2023/01/06 06:47:46;;;;;;;;;;;;;;;;;;5082065;28;20044;-61
2023/01/06 06:50:12;;;;;;;3.83;0.70;;;;;;;;;;5069996;28;19924;-61
2023/01/06 06:52:38;;;;;;;5.20;1.00;;;;;;;;;;5078995;28;20381;-60
2023/01/06 06:55:04;;;;;;;;;;;;;;;;;;5070045;28;20038;-60
2023/01/06 06:57:30;;;;;;;3.92;0.80;;;;;;;;;;5073600;28;19920;-61
2023/01/06 06:59:56;;;;;;;;;;;;;;;;;;5069995;28;20115;-61
2023/01/06 07:02:22;;;;;;;1.70;0.82;;;;;;;;;;5079502;28;19999;-59
2023/01/06 07:04:48;;;;;;;;;;;;;;;;;;5074334;28;20098;-58
2023/01/06 07:07:14;;;;;;;0.83;0.50;;;;;;;;;;5071398;28;19920;-54
2023/01/06 07:09:40;;;;;;;1.38;0.68;;;;;;;;;;5075060;28;20500;-58
2023/01/06 07:12:07;;;;;;;1.92;0.75;;;;;;;;;;5072751;28;20111;-61
2023/01/06 07:14:33;;;;;;;6.00;2.58;;;;;;;;;;5077591;28;20051;-61
2023/01/06 07:16:58;;;;;;;;;;;;;;;;;;5078726;28;20049;-62
2023/01/06 07:19:24;;;;;;;5.07;0.50;;;;;;;;;;5071322;28;19962;-60
2023/01/06 07:21:50;;;;;;;;;;;;;;;;;;5077882;28;20078;-60
2023/01/06 07:24:16;;;;;;;2.03;0.85;;;;;;;;;;5075044;28;19920;-61
2023/01/06 07:26:42;;;;;;;;;;;;;;;;;;5076230;28;20123;-60
2023/01/06 07:29:08;;;;;;;1.00;0.70;;;;;;;;;;5086320;28;19916;-57
2023/01/06 07:31:34;;;;;;;;;;;;;;;;;;5079792;28;20040;-60
2023/01/06 07:34:00;;;;;;;2.92;0.70;;;;;;;;;;5074720;28;19941;-60
2023/01/06 07:36:26;;;;;;;6.80;2.83;;;;;;;;;;5079975;28;20048;-61
2023/01/06 07:38:52;;;;;;;;;;;;;;;;;;5082314;28;20044;-61
2023/01/06 07:41:18;;;;;;;1.33;0.53;;;;;;;;;;5095778;28;19962;-61
2023/01/06 07:43:44;;;;;;;2.00;0.70;;;;;;;;;;5083897;28;20035;-61
2023/01/06 07:46:10;;;;;;;2.85;0.90;;;;;;;;;;5082212;28;20060;-61
2023/01/06 07:48:37;;;;;;;1.35;0.73;;;;;;;;;;5080243;28;20040;-61
2023/01/06 07:51:03;;;;;;;4.47;1.05;;;;;;;;;;5082351;28;20525;-60
2023/01/06 07:53:29;;;;;;;1.50;0.70;;;;;;;;;;5079364;28;20039;-60
2023/01/06 07:55:55;;;;;;;;;;;;;;;;;;5081217;28;20032;-60
2023/01/06 07:58:22;;;;;;;2.37;1.00;;;;;;;;;;5084190;28;20335;-60
2023/01/06 08:00:49;;;;;;;2.42;0.88;;;;;;;;;;5077858;28;20508;-61
2023/01/06 08:03:15;;;;;;;3.47;1.52;;;;;;;;;;5080346;28;20548;-61
2023/01/06 08:05:41;;;;;;;;;;;;;;;;;;5076672;28;20032;-61
2023/01/06 08:08:07;;;;;;;2.07;1.10;;;;;;;;;;5081587;28;19916;-60
2023/01/06 08:10:33;;;;;;;1.35;0.63;;;;;;;;;;5081361;28;20852;-60
2023/01/06 08:12:59;;;;;;;2.05;0.80;;;;;;;;;;5084760;28;20503;-61
2023/01/06 08:15:26;;;;;;;2.47;0.60;;;;;;;;;;5074517;28;20507;-61
2023/01/06 08:17:53;;;;;;;1.10;0.63;;;;;;;;;;5078061;28;20032;-61
2023/01/06 08:20:19;;;;;;;3.28;0.60;;;;;;;;;;5076511;28;20044;-60
2023/01/06 08:22:45;;;;;;;1.45;0.80;;;;;;;;;;5080050;28;20576;-61
2023/01/06 08:25:11;;;;;;;1.90;1.08;;;;;;;;;;5077800;28;20787;-60
2023/01/06 08:27:37;;;;;;;0.82;0.50;;;;;;;;;;5078154;28;20538;-60
2023/01/06 08:30:03;;;;;;;;;;;;;;;;;;5078362;28;20024;-61
2023/01/06 08:32:29;;;;;;;0.83;0.50;;;;;;;;;;5085515;28;19953;-59
2023/01/06 08:34:55;;;;;;;;;;;;;;;;;;5075981;28;20040;-60
2023/01/06 08:37:21;;;;;;;1.40;0.55;;;;;;;;;;5074845;28;19916;-60
2023/01/06 08:39:46;;;;;;;;;;;;;;;;;;5081292;28;20040;-60
2023/01/06 08:42:12;;;;;;;1.95;0.70;;;;;;;;;;5080026;28;19924;-61
2023/01/06 08:44:38;;;;;;;;;;;;;;;;;;5078563;28;20115;-61
2023/01/06 08:47:05;;;;;;;0.75;0.52;;;;;;;;;;5080509;28;19919;-61
2023/01/06 08:49:31;;;;;;;1.00;0.40;;;;;;;;;;5078598;28;20080;-60
2023/01/06 08:51:57;;;;;;;0.63;0.40;;;;;;;;;;5082169;28;20032;-60
2023/01/06 08:54:23;;;;;;;;;;;;;;;;;;5075205;28;20043;-60
2023/01/06 08:56:49;;;;;;;5.38;0.70;;;;;;;;;;5079558;28;20120;-60
2023/01/06 08:59:16;;;;;;;2.00;0.57;;;;;;;;;;5081735;28;20536;-58
2023/01/06 09:01:43;;;;;;;0.95;0.40;;;;;;;;;;5079861;28;20147;-60
2023/01/06 09:04:10;;;;;;;1.80;0.43;;;;;;;;;;5073411;28;20032;-60
2023/01/06 09:06:36;;;;;;;0.68;0.40;;;;;;;;;;5073535;28;20507;-59
2023/01/06 09:09:03;;;;;;;1.65;0.40;;;;;;;;;;5078208;28;20032;-60
2023/01/06 09:11:29;;;;;;;2.03;0.45;;;;;;;;;;5079000;28;20045;-61
2023/01/06 09:13:55;;;;;;;0.90;0.40;;;;;;;;;;5074889;28;20123;-61
2023/01/06 09:16:21;;;;;;;;;;;;;;;;;;5073073;28;20167;-60
2023/01/06 09:18:49;;;;;;;0.88;0.60;;;;;;;;;;5079138;28;19924;-60
2023/01/06 09:21:16;;;;;;;6.25;0.50;;;;;;;;;;5081740;28;20118;-60
2023/01/06 09:23:42;;;;;;;1.63;0.30;;;;;;;;;;5076399;28;20437;-60
2023/01/06 09:26:08;;;;;;;1.40;0.52;;;;;;;;;;5077559;28;20704;-60
2023/01/06 09:28:34;;;;;;;1.30;0.50;;;;;;;;;;5084814;28;20408;-61
2023/01/06 09:31:00;;;;;;;1.27;0.40;;;;;;;;;;5070489;28;20048;-62
2023/01/06 09:33:26;;;;;;;;;;;;;;;;;;5084800;28;20071;-60
2023/01/06 09:35:52;;;;;;;0.60;0.50;;;;;;;;;;5070958;28;20414;-60
2023/01/06 09:38:18;;;;;;;;;;;;;;;;;;5078532;28;20042;-61
2023/01/06 09:41:00;;;;;;;2.70;0.40;;;;;;;;;;5077610;28;19916;-61
2023/01/06 09:43:42;;;;;;;1.13;0.57;;;;;;;;;;5078978;28;20028;-60
2023/01/06 09:46:09;;;;;;;1.40;0.47;;;;;;;;;;5075089;28;20056;-61
2023/01/06 09:48:41;;;;;;;1.15;0.43;;;;;;;;;;5079632;28;20519;-60
2023/01/06 09:51:12;;;;;;;1.08;0.40;;;;;;;;;;5074041;28;20032;-58
2023/01/06 09:53:40;;;;;;;2.92;0.60;;;;;;;;;;5077319;28;20036;-58
2023/01/06 09:56:13;;;;;;;1.27;0.40;;;;;;;;;;5071287;28;20388;-60
2023/01/06 09:58:39;;;;;;;0.30;0.30;;;;;;;;;;5077446;28;20749;-62
2023/01/06 10:01:05;;;;;;;;;;;;;;;;;;5077681;28;20037;-62
2023/01/06 10:03:31;;;;;;;0.50;0.50;;;;;;;;;;5072371;28;20015;-60
2023/01/06 10:06:16;;;;;;;1.88;0.38;;;;;;;;;;5071827;28;20044;-62
2023/01/06 10:08:52;;;;;;;0.98;0.47;;;;;;;;;;5060855;28;20040;-61
2023/01/06 10:11:34;;;;;;;1.98;0.52;;;;;;;;;;5069242;28;20045;-62
2023/01/06 10:14:12;;;;;;;0.63;0.30;;;;;;;;;;5076976;28;20120;-62
2023/01/06 10:16:57;;;;;;;0.90;0.32;;;;;;;;;;5075918;28;20079;-62
2023/01/06 10:19:42;;;;;;;0.55;0.22;;;;;;;;;;5078564;28;20101;-61
2023/01/06 10:22:15;;;;;;;0.45;0.28;;;;;;;;;;5079223;28;20032;-61
2023/01/06 10:24:44;;;;;;;0.73;0.32;;;;;;;;;;5075167;28;20133;-61
2023/01/06 10:27:29;;;;;;;2.85;0.40;;;;;;;;;;5073662;28;20043;-61
2023/01/06 10:29:56;;;;;;;1.48;0.40;;;;;;;;;;5069892;28;20032;-60
2023/01/06 10:32:22;;;;;;;1.25;0.43;;;;;;;;;;5074954;28;20453;-61
2023/01/06 10:34:50;;;;;;;0.40;0.40;;;;;;;;;;5076582;28;20040;-59
2023/01/06 10:37:21;;;;;;;0.32;0.30;;;;;;;;;;5076327;28;20035;-61
2023/01/06 10:39:49;;;;;;;0.85;0.50;;;;;;;;;;5080601;28;20040;-59
2023/01/06 10:45:16;;;;;;;1.20;0.45;;;;;;;;;;5066773;28;20072;-61
2023/01/06 10:47:42;;;;;;;0.70;0.40;;;;;;;;;;5072288;28;20048;-60
2023/01/06 10:50:16;;;;;;;1.35;0.50;;;;;;;;;;5072120;28;20445;-64
2023/01/06 10:52:42;;;;;;;0.68;0.50;;;;;;;;;;5064095;28;20539;-61
2023/01/06 10:55:32;;;;;;;0.50;0.47;;;;;;;;;;5071891;28;20039;-62
2023/01/06 10:58:00;;;;;;;0.43;0.40;;;;;;;;;;5050283;28;20071;-60
2023/01/06 11:00:26;;;;;;;0.35;0.32;;;;;;;;;;5076121;28;20039;-60
2023/01/06 11:02:54;;;;;;;3.33;0.40;;;;;;;;;;5078742;28;20100;-60
2023/01/06 11:05:25;;;;;;;0.32;0.30;;;;;;;;;;5073166;28;20043;-61
2023/01/06 11:08:10;;;;;;;2.38;0.50;;;;;;;;;;5075221;28;20478;-61
2023/01/06 11:10:42;;;;;;;1.13;0.40;;;;;;;;;;5078756;28;20532;-59
2023/01/06 11:13:19;;;;;;;0.45;0.40;;;;;;;;;;5074553;28;20560;-62
2023/01/06 11:15:46;;;;;;;5.75;0.38;;;;;;;;;;5074791;28;20488;-60
2023/01/06 11:18:24;;;;;;;1.17;0.50;;;;;;;;;;5071023;28;20036;-59
2023/01/06 11:21:09;;;;;;;2.30;0.40;;;;;;;;;;5078144;28;20033;-59
2023/01/06 11:23:36;;;;;;;0.80;0.50;;;;;;;;;;5077346;28;20454;-60
2023/01/06 11:26:04;;;;;;;1.58;0.63;;;;;;;;;;5080199;28;20040;-60
2023/01/06 11:28:30;;;;;;;0.52;0.40;;;;;;;;;;5069688;28;20043;-60
2023/01/06 11:31:04;;;;;;;0.70;0.40;;;;;;;;;;5073970;28;20037;-60
2023/01/06 11:33:31;;;;;;;0.70;0.50;;;;;;;;;;5077339;28;20120;-59
2023/01/06 11:35:58;;;;;;;1.33;0.70;;;;;;;;;;5075190;28;20548;-62
2023/01/06 11:38:24;;;;;;;1.02;0.70;;;;;;;;;;5076401;28;20044;-59
2023/01/06 11:40:51;;;;;;;0.60;0.52;;;;;;;;;;5074269;28;20047;-61
2023/01/06 11:43:26;;;;;;;0.80;0.50;;;;;;;;;;5071949;28;20821;-60
2023/01/06 11:45:54;;;;;;;0.60;0.50;;;;;;;;;;5073921;28;20067;-61
2023/01/06 11:48:21;;;;;;;2.13;0.50;;;;;;;;;;5067924;28;20353;-61
2023/01/06 11:50:55;;;;;;;0.50;0.22;;;;;;;;;;5072853;28;20048;-62
2023/01/06 11:53:23;;;;;;;0.22;0.22;;;;;;;;;;5074607;28;20197;-61
2023/01/06 11:55:56;;;;;;;0.22;0.22;;;;;;;;;;5070171;28;20136;-61
2023/01/06 11:58:46;;;;;;;1.25;0.40;;;;;;;;;;5082742;28;20619;-62
2023/01/06 12:01:25;;;;;;;0.20;0.20;;;;;;;;;;5067724;28;20036;-62
2023/01/06 12:03:54;;;;;;;3.97;0.20;;;;;;;;;;5073427;28;20037;-62
2023/01/06 12:06:23;;;;;;;0.40;0.20;;;;;;;;;;5070191;28;20041;-61
2023/01/06 12:08:55;;;;;;;1.55;0.30;;;;;;;;;;5074503;28;20063;-61
2023/01/06 12:11:41;;;;;;;0.50;0.40;;;;;;;;;;5074972;28;20029;-60
2023/01/06 12:14:15;;;;;;;2.92;0.55;;;;;;;;;;5081178;28;20088;-60
2023/01/06 12:16:47;;;;;;;0.85;0.50;;;;;;;;;;5078341;28;20040;-61
2023/01/06 12:19:20;;;;;;;0.40;0.30;;;;;;;;;;5075275;28;20040;-60
2023/01/06 12:21:46;;;;;;;0.35;0.32;;;;;;;;;;5081898;28;20426;-61
2023/01/06 12:24:12;;;;;;;;;;;;;;;;;;5079575;28;20038;-60
2023/01/06 12:26:39;;;;;;;0.40;0.35;;;;;;;;;;5081799;28;19972;-61
2023/01/06 12:29:05;;;;;;;0.20;0.20;;;;;;;;;;5079749;28;20123;-59
2023/01/06 12:31:43;;;;;;;1.55;0.40;;;;;;;;;;5079676;28;20747;-58
2023/01/06 12:34:09;;;;;;;0.20;0.20;;;;;;;;;;5079328;28;20068;-61
2023/01/06 12:36:35;;;;;;;;;;;;;;;;;;5082647;28;20094;-62
2023/01/06 12:39:04;;;;;;;0.67;0.30;;;;;;;;;;5078957;28;19940;-61
2023/01/06 12:41:42;;;;;;;0.20;0.20;;;;;;;;;;5086359;28;20818;-61
2023/01/06 12:44:11;;;;;;;0.80;0.40;;;;;;;;;;5074801;28;20401;-62
2023/01/06 12:46:42;;;;;;;0.88;0.63;;;;;;;;;;5084891;28;20040;-61
2023/01/06 12:49:16;;;;;;;1.17;0.70;;;;;;;;;;5075618;28;20042;-61
2023/01/06 12:51:45;;;;;;;0.68;0.43;;;;;;;;;;5085168;28;20438;-62
2023/01/06 12:54:17;;;;;;;0.98;0.55;;;;;;;;;;5087021;28;20094;-61
2023/01/06 12:56:52;;;;;;;1.00;0.68;;;;;;;;;;5079589;28;20060;-61
2023/01/06 12:59:44;;;;;;;2.33;0.60;;;;;;;;;;5075029;28;20044;-62
2023/01/06 13:02:19;;;;;;;1.42;0.70;;;;;;;;;;5071954;28;20055;-62
2023/01/06 13:05:04;;;;;;;4.40;1.00;;;;;;;;;;5076882;28;20024;-62
2023/01/06 13:07:39;;;;;;;4.45;0.68;;;;;;;;;;5082422;28;20122;-62
2023/01/06 13:10:14;;;;;;;2.20;0.80;;;;;;;;;;5076802;28;20408;-61
2023/01/06 13:12:46;;;;;;;2.10;0.85;;;;;;;;;;5084740;28;20028;-62
2023/01/06 13:15:24;;;;;;;1.13;0.75;;;;;;;;;;5075844;28;20137;-61
2023/01/06 13:17:56;;;;;;;2.17;0.80;;;;;;;;;;5081071;28;20127;-61
2023/01/06 13:20:31;;;;;;;2.53;0.95;;;;;;;;;;5084702;28;20043;-61
2023/01/06 13:23:03;;;;;;;5.32;1.05;;;;;;;;;;5078006;28;20617;-62
2023/01/06 13:25:29;;;;;;;2.58;0.65;;;;;;;;;;5074375;28;20377;-61
2023/01/06 13:27:55;;;;;;;;;;;;;;;;;;5079369;28;20048;-61
2023/01/06 13:30:30;;;;;;;1.75;0.70;;;;;;;;;;5076766;28;19923;-62
2023/01/06 13:32:56;;;;;;;4.68;1.08;;;;;;;;;;5077273;28;20051;-61
2023/01/06 13:35:21;;;;;;;;;;;;;;;;;;5073438;28;20024;-61
2023/01/06 13:38:08;;;;;;;1.23;1.02;;;;;;;;;;5074697;28;19924;-61
2023/01/06 13:40:37;;;;;;;0.93;0.88;;;;;;;;;;5045362;28;20063;-61
2023/01/06 13:43:21;;;;;;;3.63;1.00;;;;;;;;;;5078402;28;20059;-61
2023/01/06 13:45:50;;;;;;;1.42;1.00;;;;;;;;;;5074861;28;20691;-61
2023/01/06 13:48:19;;;;;;;1.73;1.30;;;;;;;;;;5077860;28;20104;-61
2023/01/06 13:50:45;;;;;;;2.67;1.40;;;;;;;;;;5073334;28;20110;-62
2023/01/06 13:53:15;;;;;;;1.55;1.23;;;;;;;;;;5079085;28;20039;-62
2023/01/06 13:55:41;;;;;;;4.72;1.20;;;;;;;;;;5076492;28;20067;-62
2023/01/06 13:58:07;;;;;;;;;;;;;;;;;;5085883;28;20032;-61
2023/01/06 14:00:33;;;;;;;1.27;1.13;;;;;;;;;;5076909;28;19927;-60
2023/01/06 14:02:59;;;;;;;;;;;;;;;;;;5082024;28;20572;-60
2023/01/06 14:05:26;;;;;;;3.97;1.40;;;;;;;;;;5067977;28;19920;-61
2023/01/06 14:07:52;;;;;;;1.90;1.30;;;;;;;;;;5075077;28;20052;-61
2023/01/06 14:10:18;;;;;;;;;;;;;;;;;;5079977;28;20047;-61
2023/01/06 14:12:47;;;;;;;0.80;0.77;;;;;;;;;;5082006;28;19920;-61
2023/01/06 14:15:22;;;;;;;1.08;0.80;;;;;;;;;;5084158;28;20039;-62
2023/01/06 14:17:49;;;;;;;2.28;0.88;;;;;;;;;;5074419;28;20496;-62
2023/01/06 14:20:26;;;;;;;1.55;1.45;;;;;;;;;;5079950;28;20044;-60
2023/01/06 14:22:59;;;;;;;1.10;1.00;;;;;;;;;;5074979;28;20111;-61
2023/01/06 14:25:26;;;;;;;1.52;0.85;;;;;;;;;;5073559;28;20542;-62
2023/01/06 14:27:52;;;;;;;1.17;1.05;;;;;;;;;;5072679;28;20075;-62
2023/01/06 14:30:19;;;;;;;;;;;;;;;;;;5074259;28;20086;-63
2023/01/06 14:32:45;;;;;;;1.13;0.90;;;;;;;;;;5079248;28;19915;-64
2023/01/06 14:35:11;;;;;;;;;;;;;;;;;;5073774;28;20028;-59
2023/01/06 14:37:40;;;;;;;1.02;0.93;;;;;;;;;;5073189;28;20147;-63
2023/01/06 14:40:07;;;;;;;2.15;1.17;;;;;;;;;;5079072;28;20067;-61
2023/01/06 14:42:42;;;;;;;1.10;0.90;;;;;;;;;;5076033;28;20544;-61
2023/01/06 14:45:14;;;;;;;1.42;0.98;;;;;;;;;;5073802;28;20127;-62
2023/01/06 14:47:44;;;;;;;2.20;1.65;;;;;;;;;;5075383;28;20576;-62
2023/01/06 14:50:15;;;;;;;4.22;1.50;;;;;;;;;;5074347;28;20447;-62
2023/01/06 14:52:45;;;;;;;1.23;1.10;;;;;;;;;;5076354;28;20040;-61
2023/01/06 14:55:14;;;;;;;2.55;1.13;;;;;;;;;;5073284;28;20044;-63
2023/01/06 14:57:40;;;;;;;2.17;1.10;;;;;;;;;;5074685;28;20039;-61
2023/01/06 15:00:06;;;;;;;;;;;;;;;;;;5075522;28;20036;-61
2023/01/06 15:02:32;;;;;;;3.65;1.17;;;;;;;;;;5070763;28;19917;-64